Time;durP1;ratioP1;P1;durP2;ratioP2;P2;SDS_P1;SDS_P2;PMS_P1;PMS_P2;Temp;Humidity;BMP_temperature;BMP_pressure;BME280_temperature;BME280_humidity;BME280_pressure;Samples;Min_cycle;Max_cycle;Signal;HPM_P1;HPM_P2
2021/01/12 00:00:34;;;;;;;0.00;0.00;;;;;;;;;;4944667;28;20047;-65
2021/01/12 00:03:00;;;;;;;0.00;0.00;;;;;;;;;;4943466;28;20614;-65
2021/01/12 00:05:26;;;;;;;0.10;0.10;;;;;;;;;;4930942;28;20309;-63
2021/01/12 00:07:52;;;;;;;0.00;0.00;;;;;;;;;;4921892;28;22018;-61
2021/01/12 00:10:21;;;;;;;0.00;0.00;;;;;;;;;;4944584;28;20045;-61
2021/01/12 00:12:50;;;;;;;0.47;0.17;;;;;;;;;;4942097;28;20026;-60
2021/01/12 00:15:15;;;;;;;0.00;0.00;;;;;;;;;;4938615;28;20361;-61
2021/01/12 00:17:44;;;;;;;0.00;0.00;;;;;;;;;;4942837;28;20133;-62
2021/01/12 00:20:10;;;;;;;0.22;0.22;;;;;;;;;;4926070;28;20049;-61
2021/01/12 00:22:36;;;;;;;0.00;0.00;;;;;;;;;;4943174;28;20061;-62
2021/01/12 00:25:08;;;;;;;0.00;0.00;;;;;;;;;;4942985;28;20458;-61
2021/01/12 00:27:36;;;;;;;0.00;0.00;;;;;;;;;;4929074;28;20572;-61
2021/01/12 00:30:04;;;;;;;0.00;0.00;;;;;;;;;;4946230;28;20050;-64
2021/01/12 00:32:32;;;;;;;0.00;0.00;;;;;;;;;;4943050;28;20126;-60
2021/01/12 00:35:00;;;;;;;0.00;0.00;;;;;;;;;;4926256;28;20069;-62
2021/01/12 00:37:28;;;;;;;0.00;0.00;;;;;;;;;;4903924;28;20046;-63
2021/01/12 00:39:53;;;;;;;0.00;0.00;;;;;;;;;;4938622;28;20038;-60
2021/01/12 00:42:21;;;;;;;0.00;0.00;;;;;;;;;;4945074;28;20030;-61
2021/01/12 00:44:49;;;;;;;0.00;0.00;;;;;;;;;;4938929;28;20450;-63
2021/01/12 00:47:16;;;;;;;0.93;0.17;;;;;;;;;;4942150;28;20077;-65
2021/01/12 00:49:47;;;;;;;0.00;0.00;;;;;;;;;;4943736;28;20034;-60
2021/01/12 00:52:16;;;;;;;0.00;0.00;;;;;;;;;;4944701;28;20047;-61
2021/01/12 00:54:43;;;;;;;1.35;0.68;;;;;;;;;;4925036;28;20661;-64
2021/01/12 00:57:11;;;;;;;0.00;0.00;;;;;;;;;;4942701;28;20054;-62
2021/01/12 00:59:38;;;;;;;0.75;0.65;;;;;;;;;;4940912;28;20129;-65
2021/01/12 01:02:05;;;;;;;0.00;0.00;;;;;;;;;;4945846;28;20042;-61
2021/01/12 01:04:31;;;;;;;0.00;0.00;;;;;;;;;;4927351;28;20781;-60
2021/01/12 01:06:59;;;;;;;0.00;0.00;;;;;;;;;;4943509;28;20093;-59
2021/01/12 01:09:26;;;;;;;0.00;0.00;;;;;;;;;;4925113;28;20031;-61
2021/01/12 01:11:52;;;;;;;0.00;0.00;;;;;;;;;;4905536;28;20035;-64
2021/01/12 01:14:19;;;;;;;0.00;0.00;;;;;;;;;;4910374;28;20034;-61
2021/01/12 01:16:44;;;;;;;0.00;0.00;;;;;;;;;;4940517;28;20029;-63
2021/01/12 01:19:10;;;;;;;0.00;0.00;;;;;;;;;;4936033;28;20038;-60
2021/01/12 01:21:36;;;;;;;0.00;0.00;;;;;;;;;;4939659;28;20074;-61
2021/01/12 01:24:03;;;;;;;0.00;0.00;;;;;;;;;;4943442;28;21006;-64
2021/01/12 01:26:31;;;;;;;0.00;0.00;;;;;;;;;;4925011;28;20039;-60
2021/01/12 01:29:00;;;;;;;0.00;0.00;;;;;;;;;;4945163;28;20137;-62
2021/01/12 01:31:33;;;;;;;0.00;0.00;;;;;;;;;;4938698;28;20043;-63
2021/01/12 01:34:01;;;;;;;0.00;0.00;;;;;;;;;;4923817;28;20097;-62
2021/01/12 01:36:27;;;;;;;0.30;0.30;;;;;;;;;;4943265;28;20083;-63
2021/01/12 01:38:53;;;;;;;0.00;0.00;;;;;;;;;;4943270;28;20088;-61
2021/01/12 01:41:24;;;;;;;0.00;0.00;;;;;;;;;;4939916;28;20031;-63
2021/01/12 01:43:50;;;;;;;0.25;0.25;;;;;;;;;;4942030;28;20031;-62
2021/01/12 01:46:16;;;;;;;0.55;0.55;;;;;;;;;;4932345;28;20042;-62
2021/01/12 01:48:46;;;;;;;0.00;0.00;;;;;;;;;;4928182;28;20106;-63
2021/01/12 01:51:11;;;;;;;0.00;0.00;;;;;;;;;;4936716;28;20129;-63
2021/01/12 01:53:38;;;;;;;0.10;0.10;;;;;;;;;;4930443;28;20042;-62
2021/01/12 01:56:04;;;;;;;0.00;0.00;;;;;;;;;;4944296;28;20721;-63
2021/01/12 01:58:30;;;;;;;0.00;0.00;;;;;;;;;;4919591;28;20030;-65
2021/01/12 02:00:56;;;;;;;0.00;0.00;;;;;;;;;;4932947;28;20046;-64
2021/01/12 02:03:30;;;;;;;0.00;0.00;;;;;;;;;;4923214;28;20026;-65
2021/01/12 02:06:10;;;;;;;0.00;0.00;;;;;;;;;;4943810;28;20125;-61
2021/01/12 02:08:45;;;;;;;0.00;0.00;;;;;;;;;;4944914;28;20045;-62
2021/01/12 02:11:16;;;;;;;0.00;0.00;;;;;;;;;;4945359;28;20233;-63
2021/01/12 02:13:49;;;;;;;0.00;0.00;;;;;;;;;;4940308;28;20042;-63
2021/01/12 02:16:20;;;;;;;0.00;0.00;;;;;;;;;;4942744;28;20038;-63
2021/01/12 02:18:49;;;;;;;0.00;0.00;;;;;;;;;;4942408;28;20027;-65
2021/01/12 02:21:14;;;;;;;0.00;0.00;;;;;;;;;;4937360;28;20022;-62
2021/01/12 02:23:59;;;;;;;0.00;0.00;;;;;;;;;;4942849;28;20067;-63
2021/01/12 02:26:27;;;;;;;0.00;0.00;;;;;;;;;;4944408;28;20606;-61
2021/01/12 02:28:53;;;;;;;0.00;0.00;;;;;;;;;;4942820;28;20279;-61
2021/01/12 02:31:18;;;;;;;0.00;0.00;;;;;;;;;;4963412;28;20045;-62
2021/01/12 02:33:46;;;;;;;0.00;0.00;;;;;;;;;;4947842;28;20529;-62
2021/01/12 02:36:15;;;;;;;0.00;0.00;;;;;;;;;;4942070;28;20148;-60
2021/01/12 02:38:41;;;;;;;0.00;0.00;;;;;;;;;;4947168;28;20065;-63
2021/01/12 02:41:16;;;;;;;0.00;0.00;;;;;;;;;;4942643;28;20410;-62
2021/01/12 02:43:43;;;;;;;0.00;0.00;;;;;;;;;;4949624;28;20031;-58
2021/01/12 02:46:13;;;;;;;0.00;0.00;;;;;;;;;;4934720;28;20038;-61
2021/01/12 02:48:41;;;;;;;0.00;0.00;;;;;;;;;;4946180;28;20150;-59
2021/01/12 02:51:06;;;;;;;0.00;0.00;;;;;;;;;;4947061;28;20548;-62
2021/01/12 02:53:32;;;;;;;0.00;0.00;;;;;;;;;;4942910;28;20355;-63
2021/01/12 02:56:00;;;;;;;0.00;0.00;;;;;;;;;;4919848;28;20451;-63
2021/01/12 02:58:27;;;;;;;0.00;0.00;;;;;;;;;;4949998;28;20211;-64
2021/01/12 03:00:55;;;;;;;0.00;0.00;;;;;;;;;;4941662;28;20073;-64
2021/01/12 03:03:23;;;;;;;0.00;0.00;;;;;;;;;;4944110;28;20775;-61
2021/01/12 03:05:48;;;;;;;0.00;0.00;;;;;;;;;;4947326;28;20497;-61
2021/01/12 03:08:14;;;;;;;0.00;0.00;;;;;;;;;;4933557;28;20030;-64
2021/01/12 03:10:40;;;;;;;0.00;0.00;;;;;;;;;;4940189;28;21572;-59
2021/01/12 03:13:09;;;;;;;0.00;0.00;;;;;;;;;;4946750;28;20283;-61
2021/01/12 03:15:35;;;;;;;0.43;0.43;;;;;;;;;;4943713;28;20142;-63
2021/01/12 03:18:03;;;;;;;0.00;0.00;;;;;;;;;;4946279;28;20038;-62
2021/01/12 03:20:29;;;;;;;0.00;0.00;;;;;;;;;;4947491;28;20035;-65
2021/01/12 03:22:55;;;;;;;0.00;0.00;;;;;;;;;;4927236;28;20035;-61
2021/01/12 03:25:23;;;;;;;0.00;0.00;;;;;;;;;;4943487;28;20751;-65
2021/01/12 03:27:51;;;;;;;0.00;0.00;;;;;;;;;;4945932;28;20553;-60
2021/01/12 03:30:20;;;;;;;0.00;0.00;;;;;;;;;;4924507;28;20042;-63
2021/01/12 03:32:47;;;;;;;0.00;0.00;;;;;;;;;;4928670;28;20031;-62
2021/01/12 03:35:13;;;;;;;0.00;0.00;;;;;;;;;;4943810;28;20070;-62
2021/01/12 03:37:43;;;;;;;0.00;0.00;;;;;;;;;;4926482;28;20061;-61
2021/01/12 03:40:11;;;;;;;0.00;0.00;;;;;;;;;;4925927;28;20061;-62
2021/01/12 03:42:39;;;;;;;0.00;0.00;;;;;;;;;;4947675;28;20038;-63
2021/01/12 03:45:05;;;;;;;0.00;0.00;;;;;;;;;;4947273;28;20023;-64
2021/01/12 03:47:31;;;;;;;0.00;0.00;;;;;;;;;;4947137;28;20454;-64
2021/01/12 03:49:56;;;;;;;0.00;0.00;;;;;;;;;;4947989;28;20038;-62
2021/01/12 03:52:22;;;;;;;0.00;0.00;;;;;;;;;;4946376;28;20664;-63
2021/01/12 03:54:50;;;;;;;0.00;0.00;;;;;;;;;;4942421;28;20047;-61
2021/01/12 03:57:16;;;;;;;0.00;0.00;;;;;;;;;;4939832;28;20039;-63
2021/01/12 03:59:42;;;;;;;0.00;0.00;;;;;;;;;;4946054;28;20133;-65
2021/01/12 04:02:09;;;;;;;0.00;0.00;;;;;;;;;;4923300;28;20054;-65
2021/01/12 04:04:35;;;;;;;0.00;0.00;;;;;;;;;;4945236;28;20050;-65
2021/01/12 04:07:01;;;;;;;0.00;0.00;;;;;;;;;;4943943;28;20031;-66
2021/01/12 04:09:26;;;;;;;0.00;0.00;;;;;;;;;;4943657;28;20548;-67
2021/01/12 04:11:52;;;;;;;0.00;0.00;;;;;;;;;;4944334;28;20770;-67
2021/01/12 04:14:26;;;;;;;0.00;0.00;;;;;;;;;;4946128;28;20042;-68
2021/01/12 04:16:52;;;;;;;0.00;0.00;;;;;;;;;;4943724;28;20053;-68
2021/01/12 04:19:18;;;;;;;0.00;0.00;;;;;;;;;;4945738;28;20038;-67
2021/01/12 04:21:46;;;;;;;0.00;0.00;;;;;;;;;;4946178;28;20043;-67
2021/01/12 04:24:11;;;;;;;0.00;0.00;;;;;;;;;;4947862;28;20042;-68
2021/01/12 04:26:37;;;;;;;0.00;0.00;;;;;;;;;;4944456;28;20643;-68
2021/01/12 04:29:03;;;;;;;0.00;0.00;;;;;;;;;;4923502;28;20061;-68
2021/01/12 04:31:29;;;;;;;0.00;0.00;;;;;;;;;;4943328;28;20039;-68
2021/01/12 04:33:57;;;;;;;0.00;0.00;;;;;;;;;;4944650;28;20353;-68
2021/01/12 04:36:23;;;;;;;0.00;0.00;;;;;;;;;;4946132;28;20065;-68
2021/01/12 04:38:51;;;;;;;0.00;0.00;;;;;;;;;;4942616;28;20023;-68
2021/01/12 04:41:17;;;;;;;0.00;0.00;;;;;;;;;;4940218;28;20101;-68
2021/01/12 04:43:42;;;;;;;0.00;0.00;;;;;;;;;;4944541;28;20023;-68
2021/01/12 04:46:08;;;;;;;0.00;0.00;;;;;;;;;;4946792;28;20050;-69
2021/01/12 04:48:33;;;;;;;0.00;0.00;;;;;;;;;;4947673;28;20022;-69
2021/01/12 04:51:00;;;;;;;0.00;0.00;;;;;;;;;;4926826;28;20038;-69
2021/01/12 04:53:38;;;;;;;0.00;0.00;;;;;;;;;;4946884;28;20052;-68
2021/01/12 04:56:06;;;;;;;0.00;0.00;;;;;;;;;;4948504;28;20320;-70
2021/01/12 04:58:43;;;;;;;0.00;0.00;;;;;;;;;;4943546;28;20074;-69
2021/01/12 05:01:12;;;;;;;0.00;0.00;;;;;;;;;;4944189;28;20454;-67
2021/01/12 05:03:41;;;;;;;0.00;0.00;;;;;;;;;;4946020;28;20113;-66
2021/01/12 05:06:08;;;;;;;0.00;0.00;;;;;;;;;;4943655;28;20092;-68
2021/01/12 05:08:40;;;;;;;0.00;0.00;;;;;;;;;;4943727;28;20046;-68
2021/01/12 05:11:08;;;;;;;0.00;0.00;;;;;;;;;;4941825;28;20035;-67
2021/01/12 05:13:34;;;;;;;0.00;0.00;;;;;;;;;;4922880;28;20109;-67
2021/01/12 05:16:04;;;;;;;0.00;0.00;;;;;;;;;;4924608;28;20129;-68
2021/01/12 05:18:33;;;;;;;0.00;0.00;;;;;;;;;;4937859;28;20042;-67
2021/01/12 05:21:10;;;;;;;0.00;0.00;;;;;;;;;;4942419;28;20110;-67
2021/01/12 05:24:02;;;;;;;0.00;0.00;;;;;;;;;;4943264;28;20019;-67
2021/01/12 05:26:34;;;;;;;0.00;0.00;;;;;;;;;;4940915;28;20561;-67
2021/01/12 05:29:00;;;;;;;0.00;0.00;;;;;;;;;;4945740;28;20027;-68
2021/01/12 05:31:26;;;;;;;0.00;0.00;;;;;;;;;;4943810;28;20123;-67
2021/01/12 05:33:54;;;;;;;0.00;0.00;;;;;;;;;;4921627;28;20030;-66
2021/01/12 05:36:20;;;;;;;0.00;0.00;;;;;;;;;;4943100;28;20066;-67
2021/01/12 05:38:53;;;;;;;0.00;0.00;;;;;;;;;;4942404;28;20410;-68
2021/01/12 05:41:18;;;;;;;0.00;0.00;;;;;;;;;;4944350;28;20105;-66
2021/01/12 05:43:44;;;;;;;0.00;0.00;;;;;;;;;;4928676;28;20590;-67
2021/01/12 05:46:13;;;;;;;0.00;0.00;;;;;;;;;;4948657;28;20034;-68
2021/01/12 05:48:40;;;;;;;0.00;0.00;;;;;;;;;;4942017;28;20036;-66
2021/01/12 05:51:07;;;;;;;0.00;0.00;;;;;;;;;;4942881;28;20030;-67
2021/01/12 05:53:45;;;;;;;0.00;0.00;;;;;;;;;;4943679;28;20418;-67
2021/01/12 05:56:19;;;;;;;0.00;0.00;;;;;;;;;;4921477;28;20035;-67
2021/01/12 05:58:52;;;;;;;0.00;0.00;;;;;;;;;;4944190;28;22303;-66
2021/01/12 06:01:38;;;;;;;0.00;0.00;;;;;;;;;;4940644;28;20045;-67
2021/01/12 06:04:09;;;;;;;0.00;0.00;;;;;;;;;;4940472;28;20588;-67
2021/01/12 06:06:36;;;;;;;0.00;0.00;;;;;;;;;;4943652;28;20041;-67
2021/01/12 06:09:02;;;;;;;0.00;0.00;;;;;;;;;;4944955;28;20023;-67
2021/01/12 06:11:33;;;;;;;7.13;1.17;;;;;;;;;;4941469;28;20487;-67
2021/01/12 06:14:04;;;;;;;0.00;0.00;;;;;;;;;;4922081;28;20027;-67
2021/01/12 06:16:33;;;;;;;0.00;0.00;;;;;;;;;;4940094;28;20167;-67
2021/01/12 06:19:06;;;;;;;0.00;0.00;;;;;;;;;;4944937;28;20377;-66
2021/01/12 06:21:35;;;;;;;0.00;0.00;;;;;;;;;;4945065;28;20228;-66
2021/01/12 06:24:08;;;;;;;0.00;0.00;;;;;;;;;;4942853;28;20743;-66
2021/01/12 06:26:35;;;;;;;0.00;0.00;;;;;;;;;;4941871;28;20041;-67
2021/01/12 06:29:00;;;;;;;0.00;0.00;;;;;;;;;;4916577;28;20023;-66
2021/01/12 06:31:26;;;;;;;0.00;0.00;;;;;;;;;;4944189;28;20219;-66
2021/01/12 06:33:56;;;;;;;0.00;0.00;;;;;;;;;;4923530;28;20376;-67
2021/01/12 06:36:24;;;;;;;0.00;0.00;;;;;;;;;;4937892;28;20097;-66
2021/01/12 06:38:49;;;;;;;0.00;0.00;;;;;;;;;;4943074;28;20030;-66
2021/01/12 06:41:19;;;;;;;0.00;0.00;;;;;;;;;;4929925;28;20035;-67
2021/01/12 06:43:50;;;;;;;0.00;0.00;;;;;;;;;;4940917;28;21682;-67
2021/01/12 06:46:16;;;;;;;0.00;0.00;;;;;;;;;;4938870;28;20031;-67
2021/01/12 06:48:45;;;;;;;0.00;0.00;;;;;;;;;;4942982;28;20086;-68
2021/01/12 06:51:12;;;;;;;0.00;0.00;;;;;;;;;;4910573;28;21027;-66
2021/01/12 06:53:45;;;;;;;0.00;0.00;;;;;;;;;;4942862;28;21829;-67
2021/01/12 06:56:10;;;;;;;0.00;0.00;;;;;;;;;;4940697;28;20037;-67
2021/01/12 06:58:36;;;;;;;0.00;0.00;;;;;;;;;;4941048;28;20035;-66
2021/01/12 07:01:02;;;;;;;0.00;0.00;;;;;;;;;;4943069;28;21011;-67
2021/01/12 07:03:29;;;;;;;0.00;0.00;;;;;;;;;;4941807;28;20034;-68
2021/01/12 07:06:01;;;;;;;0.00;0.00;;;;;;;;;;4940071;28;20156;-67
2021/01/12 07:08:28;;;;;;;0.00;0.00;;;;;;;;;;4942845;28;20055;-67
2021/01/12 07:11:01;;;;;;;0.00;0.00;;;;;;;;;;4932111;28;20101;-67
2021/01/12 07:13:35;;;;;;;0.00;0.00;;;;;;;;;;4930970;28;20043;-67
2021/01/12 07:16:03;;;;;;;0.00;0.00;;;;;;;;;;4944722;28;20057;-67
2021/01/12 07:18:28;;;;;;;0.00;0.00;;;;;;;;;;4950014;28;20035;-67
2021/01/12 07:20:57;;;;;;;0.00;0.00;;;;;;;;;;4943454;28;20176;-69
2021/01/12 07:23:22;;;;;;;0.00;0.00;;;;;;;;;;4946253;28;20642;-67
2021/01/12 07:25:48;;;;;;;0.00;0.00;;;;;;;;;;4947455;28;20031;-67
2021/01/12 07:28:20;;;;;;;0.00;0.00;;;;;;;;;;4930940;28;20031;-67
2021/01/12 07:30:55;;;;;;;0.00;0.00;;;;;;;;;;4947645;28;20196;-67
2021/01/12 07:33:25;;;;;;;0.00;0.00;;;;;;;;;;4947680;28;20038;-67
2021/01/12 07:35:55;;;;;;;0.00;0.00;;;;;;;;;;4949185;28;20049;-68
2021/01/12 07:38:22;;;;;;;0.00;0.00;;;;;;;;;;4949881;28;20114;-67
2021/01/12 07:40:49;;;;;;;0.00;0.00;;;;;;;;;;4944348;28;20058;-67
2021/01/12 07:43:15;;;;;;;0.00;0.00;;;;;;;;;;4946070;28;20489;-67
2021/01/12 07:45:41;;;;;;;0.00;0.00;;;;;;;;;;4948142;28;20022;-67
2021/01/12 07:48:07;;;;;;;0.00;0.00;;;;;;;;;;4927124;28;20037;-67
2021/01/12 07:50:33;;;;;;;0.00;0.00;;;;;;;;;;4948794;28;20049;-67
2021/01/12 07:52:58;;;;;;;0.00;0.00;;;;;;;;;;4948110;28;20446;-67
2021/01/12 07:55:27;;;;;;;0.00;0.00;;;;;;;;;;4948680;28;20369;-67
2021/01/12 07:57:53;;;;;;;0.00;0.00;;;;;;;;;;4928915;28;20389;-68
2021/01/12 08:00:19;;;;;;;0.00;0.00;;;;;;;;;;4948200;28;20030;-67
2021/01/12 08:02:52;;;;;;;0.10;0.10;;;;;;;;;;4947940;28;20030;-67
2021/01/12 08:05:18;;;;;;;0.00;0.00;;;;;;;;;;4941798;28;20508;-67
2021/01/12 08:07:44;;;;;;;0.00;0.00;;;;;;;;;;4946638;28;20049;-66
2021/01/12 08:10:10;;;;;;;0.00;0.00;;;;;;;;;;4943949;28;20110;-68
2021/01/12 08:12:36;;;;;;;0.00;0.00;;;;;;;;;;4928221;28;20622;-69
2021/01/12 08:15:12;;;;;;;0.00;0.00;;;;;;;;;;4946664;28;20048;-68
2021/01/12 08:17:45;;;;;;;0.00;0.00;;;;;;;;;;4949024;28;20129;-68
2021/01/12 08:20:14;;;;;;;0.00;0.00;;;;;;;;;;4930440;28;20137;-67
2021/01/12 08:22:40;;;;;;;0.00;0.00;;;;;;;;;;4944766;28;20026;-68
2021/01/12 08:25:06;;;;;;;0.00;0.00;;;;;;;;;;4944258;28;20089;-65
2021/01/12 08:27:33;;;;;;;0.00;0.00;;;;;;;;;;4946202;28;20066;-67
2021/01/12 08:29:59;;;;;;;0.00;0.00;;;;;;;;;;4946336;28;20186;-68
2021/01/12 08:32:28;;;;;;;0.00;0.00;;;;;;;;;;4948664;28;20034;-70
2021/01/12 08:34:59;;;;;;;0.00;0.00;;;;;;;;;;4941644;28;20177;-70
2021/01/12 08:37:26;;;;;;;0.00;0.00;;;;;;;;;;4948171;28;20109;-67
2021/01/12 08:39:51;;;;;;;0.00;0.00;;;;;;;;;;4935046;28;20046;-68
2021/01/12 08:42:18;;;;;;;0.00;0.00;;;;;;;;;;4948501;28;20034;-68
2021/01/12 08:44:43;;;;;;;0.00;0.00;;;;;;;;;;4946077;28;20015;-69
2021/01/12 08:47:09;;;;;;;0.00;0.00;;;;;;;;;;4947997;28;20035;-69
2021/01/12 08:49:35;;;;;;;0.00;0.00;;;;;;;;;;4943999;28;20447;-69
2021/01/12 08:52:03;;;;;;;0.00;0.00;;;;;;;;;;4947083;28;20149;-67
2021/01/12 08:54:29;;;;;;;0.00;0.00;;;;;;;;;;4928905;28;20367;-69
2021/01/12 08:56:57;;;;;;;0.00;0.00;;;;;;;;;;4946601;28;20031;-68
2021/01/12 08:59:33;;;;;;;0.00;0.00;;;;;;;;;;4945080;28;20221;-68
2021/01/12 09:02:00;;;;;;;0.00;0.00;;;;;;;;;;4922178;28;20038;-68
2021/01/12 09:04:28;;;;;;;0.00;0.00;;;;;;;;;;4945405;28;20374;-68
2021/01/12 09:07:07;;;;;;;0.00;0.00;;;;;;;;;;4945781;28;20050;-69
2021/01/12 09:09:33;;;;;;;0.00;0.00;;;;;;;;;;4945742;28;20164;-68
2021/01/12 09:12:02;;;;;;;0.00;0.00;;;;;;;;;;4947219;28;20034;-68
2021/01/12 09:14:28;;;;;;;0.00;0.00;;;;;;;;;;4947915;28;20469;-68
2021/01/12 09:16:56;;;;;;;0.00;0.00;;;;;;;;;;4927183;28;20038;-67
2021/01/12 09:19:30;;;;;;;0.00;0.00;;;;;;;;;;4929117;28;20093;-65
2021/01/12 09:22:06;;;;;;;0.00;0.00;;;;;;;;;;4948065;28;20658;-66
2021/01/12 09:24:32;;;;;;;0.00;0.00;;;;;;;;;;4922977;28;20058;-67
2021/01/12 09:26:59;;;;;;;0.00;0.00;;;;;;;;;;4930609;28;20612;-66
2021/01/12 09:29:26;;;;;;;0.00;0.00;;;;;;;;;;4925640;28;20027;-67
2021/01/12 09:31:56;;;;;;;0.00;0.00;;;;;;;;;;4947606;28;20035;-64
2021/01/12 09:34:26;;;;;;;0.00;0.00;;;;;;;;;;4946221;28;20050;-65
2021/01/12 09:36:56;;;;;;;0.00;0.00;;;;;;;;;;4943818;28;20550;-65
2021/01/12 09:39:27;;;;;;;0.00;0.00;;;;;;;;;;4926216;28;20533;-64
2021/01/12 09:41:55;;;;;;;0.00;0.00;;;;;;;;;;4947536;28;20399;-66
2021/01/12 09:44:20;;;;;;;0.00;0.00;;;;;;;;;;4946670;28;20054;-64
2021/01/12 09:46:46;;;;;;;0.00;0.00;;;;;;;;;;4946206;28;20037;-66
2021/01/12 09:49:15;;;;;;;0.00;0.00;;;;;;;;;;4944018;28;20113;-66
2021/01/12 09:51:42;;;;;;;0.00;0.00;;;;;;;;;;4947646;28;20569;-66
2021/01/12 09:54:13;;;;;;;0.00;0.00;;;;;;;;;;4926609;28;20038;-66
2021/01/12 09:56:38;;;;;;;0.00;0.00;;;;;;;;;;4944813;28;20060;-67
2021/01/12 09:59:06;;;;;;;0.00;0.00;;;;;;;;;;4946569;28;20035;-65
2021/01/12 10:01:32;;;;;;;0.00;0.00;;;;;;;;;;4947773;28;20035;-71
2021/01/12 10:03:58;;;;;;;0.00;0.00;;;;;;;;;;4947166;28;20027;-64
2021/01/12 10:06:29;;;;;;;0.00;0.00;;;;;;;;;;4926927;28;20031;-69
2021/01/12 10:08:57;;;;;;;0.00;0.00;;;;;;;;;;4926948;28;20023;-68
2021/01/12 10:11:28;;;;;;;0.00;0.00;;;;;;;;;;4944827;28;20062;-66
2021/01/12 10:13:55;;;;;;;0.00;0.00;;;;;;;;;;4945673;28;20145;-65
2021/01/12 10:16:26;;;;;;;0.00;0.00;;;;;;;;;;4927406;28;20042;-67
2021/01/12 10:18:54;;;;;;;0.00;0.00;;;;;;;;;;4925126;28;20043;-65
2021/01/12 10:21:20;;;;;;;0.00;0.00;;;;;;;;;;4945850;28;20395;-67
2021/01/12 10:23:46;;;;;;;0.00;0.00;;;;;;;;;;4943363;28;20027;-67
2021/01/12 10:26:18;;;;;;;0.00;0.00;;;;;;;;;;4930311;28;20209;-65
2021/01/12 10:28:43;;;;;;;0.00;0.00;;;;;;;;;;4924745;28;20034;-65
2021/01/12 10:31:10;;;;;;;0.00;0.00;;;;;;;;;;4941508;28;20577;-66
2021/01/12 10:33:38;;;;;;;0.00;0.00;;;;;;;;;;4943351;28;20450;-66
2021/01/12 10:36:06;;;;;;;0.00;0.00;;;;;;;;;;4947117;28;20031;-65
2021/01/12 10:38:32;;;;;;;0.00;0.00;;;;;;;;;;4946011;28;20049;-65
2021/01/12 10:41:00;;;;;;;0.00;0.00;;;;;;;;;;4944720;28;20568;-66
2021/01/12 10:43:26;;;;;;;0.43;0.43;;;;;;;;;;4928119;28;20066;-65
2021/01/12 10:45:54;;;;;;;0.00;0.00;;;;;;;;;;4939720;28;20030;-65
2021/01/12 10:48:22;;;;;;;0.00;0.00;;;;;;;;;;4945098;28;20648;-64
2021/01/12 10:50:48;;;;;;;0.00;0.00;;;;;;;;;;4912683;28;20756;-63
2021/01/12 10:53:19;;;;;;;0.00;0.00;;;;;;;;;;4927381;28;20047;-68
2021/01/12 10:55:44;;;;;;;0.00;0.00;;;;;;;;;;4928793;28;20036;-65
2021/01/12 10:58:09;;;;;;;0.00;0.00;;;;;;;;;;4926266;28;20501;-65
2021/01/12 11:00:40;;;;;;;0.00;0.00;;;;;;;;;;4927951;28;20061;-67
2021/01/12 11:03:09;;;;;;;0.00;0.00;;;;;;;;;;4927740;28;20035;-64
2021/01/12 11:05:42;;;;;;;0.00;0.00;;;;;;;;;;4909090;28;20070;-64
2021/01/12 11:08:10;;;;;;;0.00;0.00;;;;;;;;;;4927385;28;20284;-65
2021/01/12 11:10:35;;;;;;;0.00;0.00;;;;;;;;;;4908287;28;20459;-65
2021/01/12 11:13:02;;;;;;;0.00;0.00;;;;;;;;;;4910337;28;20032;-64
2021/01/12 11:15:31;;;;;;;0.00;0.00;;;;;;;;;;4927977;28;20023;-65
2021/01/12 11:17:56;;;;;;;0.00;0.00;;;;;;;;;;4910631;28;20475;-63
2021/01/12 11:20:24;;;;;;;0.00;0.00;;;;;;;;;;4910048;28;20117;-64
2021/01/12 11:22:54;;;;;;;0.00;0.00;;;;;;;;;;4921779;28;20030;-64
2021/01/12 11:25:22;;;;;;;0.00;0.00;;;;;;;;;;4924039;28;20126;-65
2021/01/12 11:27:49;;;;;;;0.75;0.47;;;;;;;;;;4910663;28;20050;-63
2021/01/12 11:30:18;;;;;;;0.00;0.00;;;;;;;;;;4893395;28;20101;-63
2021/01/12 11:32:45;;;;;;;0.00;0.00;;;;;;;;;;4911555;28;20077;-65
2021/01/12 11:35:13;;;;;;;0.00;0.00;;;;;;;;;;4909010;28;20047;-63
2021/01/12 11:37:38;;;;;;;0.00;0.00;;;;;;;;;;4912245;28;21804;-63
2021/01/12 11:40:06;;;;;;;0.00;0.00;;;;;;;;;;4907257;28;20034;-65
2021/01/12 11:42:31;;;;;;;0.00;0.00;;;;;;;;;;4927435;28;20517;-65
2021/01/12 11:44:57;;;;;;;0.00;0.00;;;;;;;;;;4929215;28;20039;-64
2021/01/12 11:47:23;;;;;;;0.00;0.00;;;;;;;;;;4911325;28;20479;-65
2021/01/12 11:49:49;;;;;;;0.00;0.00;;;;;;;;;;4922476;28;20677;-65
2021/01/12 11:52:15;;;;;;;0.00;0.00;;;;;;;;;;4912913;28;20047;-65
2021/01/12 11:54:44;;;;;;;0.00;0.00;;;;;;;;;;4924366;28;20058;-65
2021/01/12 11:57:13;;;;;;;0.00;0.00;;;;;;;;;;4907252;28;20590;-66
2021/01/12 11:59:38;;;;;;;0.00;0.00;;;;;;;;;;4902802;28;20165;-67
2021/01/12 12:02:05;;;;;;;0.00;0.00;;;;;;;;;;4922000;28;20499;-66
2021/01/12 12:04:30;;;;;;;1.08;0.80;;;;;;;;;;4904577;29;20056;-67
2021/01/12 12:07:02;;;;;;;0.20;0.20;;;;;;;;;;4909838;28;20108;-66
2021/01/12 12:09:30;;;;;;;0.00;0.00;;;;;;;;;;4903238;28;20034;-67
2021/01/12 12:11:57;;;;;;;0.10;0.10;;;;;;;;;;4911820;29;20031;-65
2021/01/12 12:14:23;;;;;;;0.13;0.13;;;;;;;;;;4923978;28;20051;-67
2021/01/12 12:16:54;;;;;;;0.00;0.00;;;;;;;;;;4910570;29;20118;-63
2021/01/12 12:19:22;;;;;;;0.00;0.00;;;;;;;;;;4925037;28;20047;-65
2021/01/12 12:21:49;;;;;;;0.00;0.00;;;;;;;;;;4923632;28;20109;-63
2021/01/12 12:24:18;;;;;;;3.83;0.98;;;;;;;;;;4924336;28;20027;-65
2021/01/12 12:26:46;;;;;;;0.00;0.00;;;;;;;;;;4924572;28;20360;-67
2021/01/12 12:29:12;;;;;;;0.00;0.00;;;;;;;;;;4923292;28;20110;-66
2021/01/12 12:31:40;;;;;;;0.00;0.00;;;;;;;;;;4922965;28;20577;-66
2021/01/12 12:34:08;;;;;;;0.00;0.00;;;;;;;;;;4923883;28;20113;-66
2021/01/12 12:36:41;;;;;;;0.00;0.00;;;;;;;;;;4915441;28;20031;-64
2021/01/12 12:39:10;;;;;;;0.00;0.00;;;;;;;;;;4923348;28;20035;-67
2021/01/12 12:41:35;;;;;;;0.00;0.00;;;;;;;;;;4923962;28;20034;-65
2021/01/12 12:44:07;;;;;;;0.00;0.00;;;;;;;;;;4906239;29;20130;-65
2021/01/12 12:46:36;;;;;;;0.00;0.00;;;;;;;;;;4894778;28;20035;-64
2021/01/12 12:49:04;;;;;;;0.35;0.35;;;;;;;;;;4913904;28;20122;-65
2021/01/12 12:51:29;;;;;;;0.15;0.15;;;;;;;;;;4914903;28;20290;-65
2021/01/12 12:53:58;;;;;;;0.00;0.00;;;;;;;;;;4928765;28;20507;-66
2021/01/12 12:56:24;;;;;;;1.63;0.57;;;;;;;;;;4946724;28;20153;-65
2021/01/12 12:58:50;;;;;;;0.00;0.00;;;;;;;;;;4946716;28;20423;-65
2021/01/12 13:01:16;;;;;;;0.00;0.00;;;;;;;;;;4929418;28;20058;-65
2021/01/12 13:03:44;;;;;;;0.00;0.00;;;;;;;;;;4941363;28;20027;-66
2021/01/12 13:06:11;;;;;;;0.00;0.00;;;;;;;;;;4947224;28;20379;-67
2021/01/12 13:08:39;;;;;;;0.00;0.00;;;;;;;;;;4945051;28;20501;-65
2021/01/12 13:11:05;;;;;;;0.00;0.00;;;;;;;;;;4942437;28;20241;-64
2021/01/12 13:13:32;;;;;;;0.00;0.00;;;;;;;;;;4941022;28;20038;-64
2021/01/12 13:16:04;;;;;;;0.00;0.00;;;;;;;;;;4943140;28;20027;-62
2021/01/12 13:18:38;;;;;;;0.00;0.00;;;;;;;;;;4928044;28;20554;-64
2021/01/12 13:21:06;;;;;;;0.00;0.00;;;;;;;;;;4930789;28;20631;-65
2021/01/12 13:23:31;;;;;;;0.00;0.00;;;;;;;;;;4941388;28;20212;-65
2021/01/12 13:25:59;;;;;;;0.00;0.00;;;;;;;;;;4945720;28;20045;-67
2021/01/12 13:28:28;;;;;;;0.00;0.00;;;;;;;;;;4925822;28;20185;-65
2021/01/12 13:30:58;;;;;;;0.00;0.00;;;;;;;;;;4946896;28;20037;-63
2021/01/12 13:33:23;;;;;;;0.00;0.00;;;;;;;;;;4933686;28;20030;-65
2021/01/12 13:35:51;;;;;;;0.00;0.00;;;;;;;;;;4926938;28;20039;-63
2021/01/12 13:38:16;;;;;;;0.00;0.00;;;;;;;;;;4947213;28;20163;-64
2021/01/12 13:40:42;;;;;;;0.00;0.00;;;;;;;;;;4944053;28;20347;-63
2021/01/12 13:43:12;;;;;;;0.00;0.00;;;;;;;;;;4945198;28;20447;-65
2021/01/12 13:45:40;;;;;;;0.00;0.00;;;;;;;;;;4935472;28;20034;-64
2021/01/12 13:48:09;;;;;;;0.00;0.00;;;;;;;;;;4946993;28;20034;-64
2021/01/12 13:50:43;;;;;;;0.00;0.00;;;;;;;;;;4938696;28;20035;-63
2021/01/12 13:53:10;;;;;;;0.00;0.00;;;;;;;;;;4943848;28;20181;-63
2021/01/12 13:55:36;;;;;;;0.00;0.00;;;;;;;;;;4946428;28;20089;-64
2021/01/12 13:58:05;;;;;;;0.00;0.00;;;;;;;;;;4945580;28;20483;-63
2021/01/12 14:00:34;;;;;;;0.00;0.00;;;;;;;;;;4944365;28;20371;-65
2021/01/12 14:03:04;;;;;;;0.00;0.00;;;;;;;;;;4943972;28;20042;-64
2021/01/12 14:05:29;;;;;;;0.00;0.00;;;;;;;;;;4932577;28;20127;-64
2021/01/12 14:07:57;;;;;;;0.00;0.00;;;;;;;;;;4947959;28;20068;-64
2021/01/12 14:10:23;;;;;;;0.00;0.00;;;;;;;;;;4943973;28;20520;-64
2021/01/12 14:12:52;;;;;;;0.00;0.00;;;;;;;;;;4923831;28;20031;-65
2021/01/12 14:15:24;;;;;;;0.00;0.00;;;;;;;;;;4944967;28;20042;-64
2021/01/12 14:17:51;;;;;;;0.00;0.00;;;;;;;;;;4925154;28;20372;-63
2021/01/12 14:20:18;;;;;;;0.00;0.00;;;;;;;;;;4946345;28;20030;-64
2021/01/12 14:22:46;;;;;;;0.00;0.00;;;;;;;;;;4944410;28;20065;-63
2021/01/12 14:25:12;;;;;;;0.00;0.00;;;;;;;;;;4945492;28;20374;-63
2021/01/12 14:27:40;;;;;;;0.00;0.00;;;;;;;;;;4941353;28;20110;-64
2021/01/12 14:30:06;;;;;;;0.70;0.43;;;;;;;;;;4926517;28;20364;-67
2021/01/12 14:32:35;;;;;;;0.00;0.00;;;;;;;;;;4945629;28;20039;-64
2021/01/12 14:35:04;;;;;;;0.00;0.00;;;;;;;;;;4939268;28;20055;-65
2021/01/12 14:37:39;;;;;;;0.00;0.00;;;;;;;;;;4940898;28;20045;-64
2021/01/12 14:40:06;;;;;;;;;;;;;;;;;;4946117;28;20034;-64
2021/01/12 14:42:32;;;;;;;0.00;0.00;;;;;;;;;;4944363;28;20456;-64
2021/01/12 14:45:00;;;;;;;0.00;0.00;;;;;;;;;;4927877;28;20861;-64
2021/01/12 14:47:28;;;;;;;0.00;0.00;;;;;;;;;;4941405;28;20026;-64